sensor_id;sensor_type;location;lat;lon;timestamp;P1;durP1;ratioP1;P2;durP2;ratioP2
67986;SDS011;54767;53.800;15.956;2023-04-10T00:00:42;8.80;;;5.20;;
67986;SDS011;54767;53.800;15.956;2023-04-10T00:03:21;10.40;;;5.90;;
67986;SDS011;54767;53.800;15.956;2023-04-10T00:05:51;10.50;;;6.10;;
67986;SDS011;54767;53.800;15.956;2023-04-10T00:08:22;10.30;;;5.50;;
67986;SDS011;54767;53.800;15.956;2023-04-10T00:10:51;11.10;;;5.80;;
67986;SDS011;54767;53.800;15.956;2023-04-10T00:13:24;9.90;;;6.00;;
67986;SDS011;54767;53.800;15.956;2023-04-10T00:15:53;10.60;;;6.00;;
67986;SDS011;54767;53.800;15.956;2023-04-10T00:18:22;11.00;;;5.90;;
67986;SDS011;54767;53.800;15.956;2023-04-10T00:20:50;10.00;;;6.00;;
67986;SDS011;54767;53.800;15.956;2023-04-10T00:23:18;9.10;;;5.80;;
67986;SDS011;54767;53.800;15.956;2023-04-10T00:25:46;11.40;;;5.80;;
67986;SDS011;54767;53.800;15.956;2023-04-10T00:28:15;12.50;;;5.80;;
67986;SDS011;54767;53.800;15.956;2023-04-10T00:30:44;10.60;;;5.90;;
67986;SDS011;54767;53.800;15.956;2023-04-10T00:33:12;10.60;;;5.60;;
67986;SDS011;54767;53.800;15.956;2023-04-10T00:35:40;10.30;;;5.30;;
67986;SDS011;54767;53.800;15.956;2023-04-10T00:38:09;9.00;;;5.40;;
67986;SDS011;54767;53.800;15.956;2023-04-10T00:40:37;8.20;;;4.90;;
67986;SDS011;54767;53.800;15.956;2023-04-10T00:43:06;10.00;;;5.60;;
67986;SDS011;54767;53.800;15.956;2023-04-10T00:45:34;8.30;;;5.00;;
67986;SDS011;54767;53.800;15.956;2023-04-10T00:48:03;11.60;;;5.20;;
67986;SDS011;54767;53.800;15.956;2023-04-10T00:50:31;8.80;;;5.30;;
67986;SDS011;54767;53.800;15.956;2023-04-10T00:53:00;8.70;;;5.30;;
67986;SDS011;54767;53.800;15.956;2023-04-10T00:55:28;9.40;;;5.40;;
67986;SDS011;54767;53.800;15.956;2023-04-10T00:57:56;8.90;;;5.60;;
67986;SDS011;54767;53.800;15.956;2023-04-10T01:00:25;8.00;;;5.40;;
67986;SDS011;54767;53.800;15.956;2023-04-10T01:02:53;10.50;;;5.00;;
67986;SDS011;54767;53.800;15.956;2023-04-10T01:05:22;8.60;;;4.90;;
67986;SDS011;54767;53.800;15.956;2023-04-10T01:16:02;8.60;;;5.50;;
67986;SDS011;54767;53.800;15.956;2023-04-10T01:21:23;9.70;;;5.40;;
67986;SDS011;54767;53.800;15.956;2023-04-10T01:24:01;10.00;;;5.20;;
67986;SDS011;54767;53.800;15.956;2023-04-10T01:29:19;8.50;;;5.30;;
67986;SDS011;54767;53.800;15.956;2023-04-10T01:31:52;13.30;;;6.10;;
67986;SDS011;54767;53.800;15.956;2023-04-10T01:34:27;9.50;;;5.70;;
67986;SDS011;54767;53.800;15.956;2023-04-10T01:37:11;9.40;;;5.50;;
67986;SDS011;54767;53.800;15.956;2023-04-10T01:39:43;9.50;;;5.70;;
67986;SDS011;54767;53.800;15.956;2023-04-10T01:42:16;11.10;;;5.60;;
67986;SDS011;54767;53.800;15.956;2023-04-10T01:44:47;11.60;;;5.50;;
67986;SDS011;54767;53.800;15.956;2023-04-10T01:47:17;8.90;;;5.20;;
67986;SDS011;54767;53.800;15.956;2023-04-10T01:49:46;9.40;;;5.30;;
67986;SDS011;54767;53.800;15.956;2023-04-10T01:52:16;8.40;;;5.00;;
67986;SDS011;54767;53.800;15.956;2023-04-10T01:54:46;8.20;;;5.20;;
67986;SDS011;54767;53.800;15.956;2023-04-10T01:57:18;8.50;;;5.00;;
67986;SDS011;54767;53.800;15.956;2023-04-10T01:59:48;7.00;;;4.50;;
67986;SDS011;54767;53.800;15.956;2023-04-10T02:02:16;7.00;;;4.40;;
67986;SDS011;54767;53.800;15.956;2023-04-10T02:04:45;6.30;;;4.40;;
67986;SDS011;54767;53.800;15.956;2023-04-10T02:10:18;6.70;;;4.30;;
67986;SDS011;54767;53.800;15.956;2023-04-10T02:12:52;7.50;;;4.60;;
67986;SDS011;54767;53.800;15.956;2023-04-10T02:15:26;8.30;;;4.60;;
67986;SDS011;54767;53.800;15.956;2023-04-10T02:17:59;8.20;;;4.80;;
67986;SDS011;54767;53.800;15.956;2023-04-10T02:20:33;8.80;;;4.50;;
67986;SDS011;54767;53.800;15.956;2023-04-10T02:23:02;7.60;;;4.50;;
67986;SDS011;54767;53.800;15.956;2023-04-10T02:25:32;10.90;;;5.80;;
67986;SDS011;54767;53.800;15.956;2023-04-10T02:28:04;7.90;;;4.80;;
67986;SDS011;54767;53.800;15.956;2023-04-10T02:30:33;10.90;;;5.10;;
67986;SDS011;54767;53.800;15.956;2023-04-10T02:33:02;9.00;;;5.20;;
67986;SDS011;54767;53.800;15.956;2023-04-10T02:35:32;9.20;;;5.30;;
67986;SDS011;54767;53.800;15.956;2023-04-10T02:38:01;6.90;;;4.60;;
67986;SDS011;54767;53.800;15.956;2023-04-10T02:40:29;9.20;;;5.10;;
67986;SDS011;54767;53.800;15.956;2023-04-10T02:42:57;8.10;;;5.20;;
67986;SDS011;54767;53.800;15.956;2023-04-10T02:45:25;9.70;;;5.30;;
67986;SDS011;54767;53.800;15.956;2023-04-10T02:47:54;8.50;;;5.10;;
67986;SDS011;54767;53.800;15.956;2023-04-10T02:50:22;11.10;;;5.10;;
67986;SDS011;54767;53.800;15.956;2023-04-10T02:52:50;7.30;;;5.00;;
67986;SDS011;54767;53.800;15.956;2023-04-10T02:55:19;9.90;;;5.40;;
67986;SDS011;54767;53.800;15.956;2023-04-10T02:57:47;8.00;;;5.10;;
67986;SDS011;54767;53.800;15.956;2023-04-10T03:00:15;8.50;;;5.10;;
67986;SDS011;54767;53.800;15.956;2023-04-10T03:02:46;10.20;;;5.30;;
67986;SDS011;54767;53.800;15.956;2023-04-10T03:05:14;8.80;;;5.00;;
67986;SDS011;54767;53.800;15.956;2023-04-10T03:07:43;8.80;;;5.20;;
67986;SDS011;54767;53.800;15.956;2023-04-10T03:10:11;9.60;;;4.90;;
67986;SDS011;54767;53.800;15.956;2023-04-10T03:12:39;8.20;;;5.10;;
67986;SDS011;54767;53.800;15.956;2023-04-10T03:15:07;9.70;;;4.60;;
67986;SDS011;54767;53.800;15.956;2023-04-10T03:17:37;8.40;;;5.10;;
67986;SDS011;54767;53.800;15.956;2023-04-10T03:20:05;10.80;;;5.10;;
67986;SDS011;54767;53.800;15.956;2023-04-10T03:22:34;8.00;;;5.10;;
67986;SDS011;54767;53.800;15.956;2023-04-10T03:25:03;9.10;;;5.10;;
67986;SDS011;54767;53.800;15.956;2023-04-10T03:27:32;8.50;;;5.00;;
67986;SDS011;54767;53.800;15.956;2023-04-10T03:30:01;8.30;;;5.20;;
67986;SDS011;54767;53.800;15.956;2023-04-10T03:32:30;6.70;;;5.00;;
67986;SDS011;54767;53.800;15.956;2023-04-10T03:34:58;9.20;;;4.90;;
67986;SDS011;54767;53.800;15.956;2023-04-10T03:37:26;8.10;;;5.10;;
67986;SDS011;54767;53.800;15.956;2023-04-10T03:39:55;8.70;;;4.90;;
67986;SDS011;54767;53.800;15.956;2023-04-10T03:42:23;8.50;;;4.70;;
67986;SDS011;54767;53.800;15.956;2023-04-10T03:44:51;7.40;;;4.70;;
67986;SDS011;54767;53.800;15.956;2023-04-10T03:47:19;8.40;;;4.90;;
67986;SDS011;54767;53.800;15.956;2023-04-10T03:49:48;8.30;;;4.80;;
67986;SDS011;54767;53.800;15.956;2023-04-10T03:52:16;8.90;;;4.80;;
67986;SDS011;54767;53.800;15.956;2023-04-10T03:54:44;8.70;;;5.40;;
67986;SDS011;54767;53.800;15.956;2023-04-10T03:57:13;8.50;;;5.20;;
67986;SDS011;54767;53.800;15.956;2023-04-10T03:59:41;7.40;;;4.80;;
67986;SDS011;54767;53.800;15.956;2023-04-10T04:02:09;8.30;;;4.90;;
67986;SDS011;54767;53.800;15.956;2023-04-10T04:04:39;8.50;;;4.90;;
67986;SDS011;54767;53.800;15.956;2023-04-10T04:07:08;7.10;;;4.50;;
67986;SDS011;54767;53.800;15.956;2023-04-10T04:09:37;7.50;;;4.80;;
67986;SDS011;54767;53.800;15.956;2023-04-10T04:12:06;9.00;;;5.20;;
67986;SDS011;54767;53.800;15.956;2023-04-10T04:14:35;10.40;;;5.80;;
67986;SDS011;54767;53.800;15.956;2023-04-10T04:17:03;9.70;;;5.30;;
67986;SDS011;54767;53.800;15.956;2023-04-10T04:19:31;9.70;;;5.20;;
67986;SDS011;54767;53.800;15.956;2023-04-10T04:22:00;7.80;;;4.70;;
67986;SDS011;54767;53.800;15.956;2023-04-10T04:24:28;10.60;;;5.00;;
67986;SDS011;54767;53.800;15.956;2023-04-10T04:26:57;11.00;;;5.40;;
67986;SDS011;54767;53.800;15.956;2023-04-10T04:29:25;11.20;;;6.40;;
67986;SDS011;54767;53.800;15.956;2023-04-10T04:31:53;10.20;;;5.70;;
67986;SDS011;54767;53.800;15.956;2023-04-10T04:34:22;8.80;;;5.50;;
67986;SDS011;54767;53.800;15.956;2023-04-10T04:36:50;10.10;;;5.40;;
67986;SDS011;54767;53.800;15.956;2023-04-10T04:39:19;9.90;;;5.20;;
67986;SDS011;54767;53.800;15.956;2023-04-10T04:41:50;9.30;;;5.20;;
67986;SDS011;54767;53.800;15.956;2023-04-10T04:44:18;12.30;;;5.60;;
67986;SDS011;54767;53.800;15.956;2023-04-10T04:46:46;10.70;;;5.80;;
67986;SDS011;54767;53.800;15.956;2023-04-10T04:49:15;13.80;;;5.70;;
67986;SDS011;54767;53.800;15.956;2023-04-10T04:51:43;12.30;;;5.90;;
67986;SDS011;54767;53.800;15.956;2023-04-10T04:54:11;11.70;;;5.50;;
67986;SDS011;54767;53.800;15.956;2023-04-10T04:56:39;9.70;;;5.50;;
67986;SDS011;54767;53.800;15.956;2023-04-10T04:59:08;9.50;;;5.90;;
67986;SDS011;54767;53.800;15.956;2023-04-10T05:01:36;10.70;;;6.10;;
67986;SDS011;54767;53.800;15.956;2023-04-10T05:04:04;11.00;;;6.30;;
67986;SDS011;54767;53.800;15.956;2023-04-10T05:06:33;10.70;;;5.70;;
67986;SDS011;54767;53.800;15.956;2023-04-10T05:09:01;9.50;;;6.00;;
67986;SDS011;54767;53.800;15.956;2023-04-10T05:11:29;10.10;;;6.10;;
67986;SDS011;54767;53.800;15.956;2023-04-10T05:13:58;11.70;;;6.40;;
67986;SDS011;54767;53.800;15.956;2023-04-10T05:16:27;12.20;;;6.40;;
67986;SDS011;54767;53.800;15.956;2023-04-10T05:18:55;11.20;;;6.30;;
67986;SDS011;54767;53.800;15.956;2023-04-10T05:21:24;11.40;;;6.70;;
67986;SDS011;54767;53.800;15.956;2023-04-10T05:23:52;11.20;;;6.50;;
67986;SDS011;54767;53.800;15.956;2023-04-10T05:26:21;10.90;;;6.60;;
67986;SDS011;54767;53.800;15.956;2023-04-10T05:28:49;12.50;;;7.30;;
67986;SDS011;54767;53.800;15.956;2023-04-10T05:31:17;15.10;;;8.30;;
67986;SDS011;54767;53.800;15.956;2023-04-10T05:33:46;15.30;;;8.30;;
67986;SDS011;54767;53.800;15.956;2023-04-10T05:36:14;13.50;;;8.40;;
67986;SDS011;54767;53.800;15.956;2023-04-10T05:38:45;14.40;;;8.30;;
67986;SDS011;54767;53.800;15.956;2023-04-10T05:41:13;12.80;;;8.60;;
67986;SDS011;54767;53.800;15.956;2023-04-10T05:43:41;17.00;;;9.40;;
67986;SDS011;54767;53.800;15.956;2023-04-10T05:46:09;16.80;;;9.60;;
67986;SDS011;54767;53.800;15.956;2023-04-10T05:48:38;15.20;;;9.10;;
67986;SDS011;54767;53.800;15.956;2023-04-10T05:51:07;14.20;;;8.90;;
67986;SDS011;54767;53.800;15.956;2023-04-10T05:53:36;16.50;;;9.20;;
67986;SDS011;54767;53.800;15.956;2023-04-10T05:56:07;16.20;;;9.60;;
67986;SDS011;54767;53.800;15.956;2023-04-10T05:58:35;15.70;;;10.20;;
67986;SDS011;54767;53.800;15.956;2023-04-10T06:01:04;14.50;;;9.70;;
67986;SDS011;54767;53.800;15.956;2023-04-10T06:03:32;15.90;;;9.60;;
67986;SDS011;54767;53.800;15.956;2023-04-10T06:06:01;18.30;;;10.00;;
67986;SDS011;54767;53.800;15.956;2023-04-10T06:08:30;17.30;;;10.70;;
67986;SDS011;54767;53.800;15.956;2023-04-10T06:10:58;17.20;;;10.10;;
67986;SDS011;54767;53.800;15.956;2023-04-10T06:13:27;20.50;;;11.70;;
67986;SDS011;54767;53.800;15.956;2023-04-10T06:15:55;19.50;;;11.90;;
67986;SDS011;54767;53.800;15.956;2023-04-10T06:18:23;17.90;;;11.00;;
67986;SDS011;54767;53.800;15.956;2023-04-10T06:20:52;16.40;;;10.00;;
67986;SDS011;54767;53.800;15.956;2023-04-10T06:23:20;16.50;;;10.10;;
67986;SDS011;54767;53.800;15.956;2023-04-10T06:25:49;14.90;;;9.40;;
67986;SDS011;54767;53.800;15.956;2023-04-10T06:28:17;13.40;;;8.10;;
67986;SDS011;54767;53.800;15.956;2023-04-10T06:30:45;12.50;;;7.70;;
67986;SDS011;54767;53.800;15.956;2023-04-10T06:33:13;11.80;;;7.90;;
67986;SDS011;54767;53.800;15.956;2023-04-10T06:35:43;13.50;;;8.40;;
67986;SDS011;54767;53.800;15.956;2023-04-10T06:38:11;13.20;;;8.00;;
67986;SDS011;54767;53.800;15.956;2023-04-10T06:40:40;13.80;;;7.30;;
67986;SDS011;54767;53.800;15.956;2023-04-10T06:43:09;10.90;;;7.20;;
67986;SDS011;54767;53.800;15.956;2023-04-10T06:45:37;10.70;;;6.90;;
67986;SDS011;54767;53.800;15.956;2023-04-10T06:48:06;13.70;;;6.70;;
67986;SDS011;54767;53.800;15.956;2023-04-10T06:50:34;11.50;;;6.60;;
67986;SDS011;54767;53.800;15.956;2023-04-10T06:53:03;11.90;;;6.00;;
67986;SDS011;54767;53.800;15.956;2023-04-10T06:55:31;11.10;;;6.10;;
67986;SDS011;54767;53.800;15.956;2023-04-10T06:57:59;10.60;;;6.40;;
67986;SDS011;54767;53.800;15.956;2023-04-10T07:00:29;9.70;;;6.10;;
67986;SDS011;54767;53.800;15.956;2023-04-10T07:05:26;9.40;;;6.40;;
67986;SDS011;54767;53.800;15.956;2023-04-10T07:07:54;10.30;;;6.40;;
67986;SDS011;54767;53.800;15.956;2023-04-10T07:10:22;9.10;;;5.70;;
67986;SDS011;54767;53.800;15.956;2023-04-10T07:12:51;10.10;;;5.30;;
67986;SDS011;54767;53.800;15.956;2023-04-10T07:15:20;10.40;;;6.10;;
67986;SDS011;54767;53.800;15.956;2023-04-10T07:17:48;8.80;;;5.70;;
67986;SDS011;54767;53.800;15.956;2023-04-10T07:20:17;9.80;;;5.30;;
67986;SDS011;54767;53.800;15.956;2023-04-10T07:22:45;10.50;;;5.50;;
67986;SDS011;54767;53.800;15.956;2023-04-10T07:25:14;9.50;;;5.80;;
67986;SDS011;54767;53.800;15.956;2023-04-10T07:27:42;7.30;;;5.30;;
67986;SDS011;54767;53.800;15.956;2023-04-10T07:30:10;9.60;;;5.60;;
67986;SDS011;54767;53.800;15.956;2023-04-10T07:35:09;11.50;;;5.80;;
67986;SDS011;54767;53.800;15.956;2023-04-10T07:37:37;10.10;;;6.00;;
67986;SDS011;54767;53.800;15.956;2023-04-10T07:40:06;10.10;;;6.00;;
67986;SDS011;54767;53.800;15.956;2023-04-10T07:42:35;11.00;;;6.20;;
67986;SDS011;54767;53.800;15.956;2023-04-10T07:45:04;10.10;;;6.20;;
67986;SDS011;54767;53.800;15.956;2023-04-10T07:47:33;11.70;;;6.40;;
67986;SDS011;54767;53.800;15.956;2023-04-10T07:50:01;11.20;;;6.30;;
67986;SDS011;54767;53.800;15.956;2023-04-10T07:52:30;13.60;;;7.70;;
67986;SDS011;54767;53.800;15.956;2023-04-10T07:55:02;13.30;;;7.20;;
67986;SDS011;54767;53.800;15.956;2023-04-10T07:57:31;15.20;;;8.40;;
67986;SDS011;54767;53.800;15.956;2023-04-10T07:59:59;11.70;;;7.10;;
67986;SDS011;54767;53.800;15.956;2023-04-10T08:02:28;32.80;;;8.80;;
67986;SDS011;54767;53.800;15.956;2023-04-10T08:04:57;19.10;;;9.00;;
67986;SDS011;54767;53.800;15.956;2023-04-10T08:07:26;14.10;;;8.10;;
67986;SDS011;54767;53.800;15.956;2023-04-10T08:09:54;16.10;;;8.80;;
67986;SDS011;54767;53.800;15.956;2023-04-10T08:12:23;15.20;;;9.90;;
67986;SDS011;54767;53.800;15.956;2023-04-10T08:14:51;14.70;;;8.60;;
67986;SDS011;54767;53.800;15.956;2023-04-10T08:17:19;14.80;;;8.70;;
67986;SDS011;54767;53.800;15.956;2023-04-10T08:19:48;13.80;;;7.70;;
67986;SDS011;54767;53.800;15.956;2023-04-10T08:22:16;15.40;;;8.50;;
67986;SDS011;54767;53.800;15.956;2023-04-10T08:24:44;15.80;;;8.50;;
67986;SDS011;54767;53.800;15.956;2023-04-10T08:27:12;15.00;;;8.90;;
67986;SDS011;54767;53.800;15.956;2023-04-10T08:29:42;14.50;;;8.50;;
67986;SDS011;54767;53.800;15.956;2023-04-10T08:32:11;17.70;;;12.00;;
67986;SDS011;54767;53.800;15.956;2023-04-10T08:34:39;15.00;;;9.40;;
67986;SDS011;54767;53.800;15.956;2023-04-10T08:37:07;18.20;;;11.70;;
67986;SDS011;54767;53.800;15.956;2023-04-10T08:39:39;15.40;;;9.40;;
67986;SDS011;54767;53.800;15.956;2023-04-10T08:42:07;12.90;;;8.40;;
67986;SDS011;54767;53.800;15.956;2023-04-10T08:44:35;16.00;;;9.40;;
67986;SDS011;54767;53.800;15.956;2023-04-10T08:47:05;14.90;;;9.10;;
67986;SDS011;54767;53.800;15.956;2023-04-10T08:49:52;15.10;;;8.60;;
67986;SDS011;54767;53.800;15.956;2023-04-10T08:52:25;16.80;;;10.00;;
67986;SDS011;54767;53.800;15.956;2023-04-10T08:54:56;14.60;;;9.10;;
67986;SDS011;54767;53.800;15.956;2023-04-10T08:57:27;15.80;;;9.80;;
67986;SDS011;54767;53.800;15.956;2023-04-10T08:59:56;18.60;;;9.20;;
67986;SDS011;54767;53.800;15.956;2023-04-10T09:02:31;14.60;;;8.60;;
67986;SDS011;54767;53.800;15.956;2023-04-10T09:05:00;13.40;;;8.30;;
67986;SDS011;54767;53.800;15.956;2023-04-10T09:07:31;13.10;;;7.90;;
67986;SDS011;54767;53.800;15.956;2023-04-10T09:09:59;16.10;;;9.00;;
67986;SDS011;54767;53.800;15.956;2023-04-10T09:12:27;13.80;;;8.80;;
67986;SDS011;54767;53.800;15.956;2023-04-10T09:14:55;14.10;;;8.70;;
67986;SDS011;54767;53.800;15.956;2023-04-10T09:17:24;15.10;;;9.60;;
67986;SDS011;54767;53.800;15.956;2023-04-10T09:19:53;13.20;;;8.60;;
67986;SDS011;54767;53.800;15.956;2023-04-10T09:22:30;13.80;;;8.40;;
67986;SDS011;54767;53.800;15.956;2023-04-10T09:25:00;15.10;;;8.60;;
67986;SDS011;54767;53.800;15.956;2023-04-10T09:27:34;15.00;;;8.90;;
67986;SDS011;54767;53.800;15.956;2023-04-10T09:30:05;16.40;;;9.70;;
67986;SDS011;54767;53.800;15.956;2023-04-10T09:32:42;18.60;;;10.50;;
67986;SDS011;54767;53.800;15.956;2023-04-10T09:35:12;14.60;;;9.00;;
67986;SDS011;54767;53.800;15.956;2023-04-10T09:37:44;18.00;;;10.10;;
67986;SDS011;54767;53.800;15.956;2023-04-10T09:42:52;17.60;;;10.30;;
67986;SDS011;54767;53.800;15.956;2023-04-10T09:45:23;13.00;;;7.60;;
67986;SDS011;54767;53.800;15.956;2023-04-10T09:48:04;12.10;;;7.90;;
67986;SDS011;54767;53.800;15.956;2023-04-10T09:50:38;13.30;;;8.40;;
67986;SDS011;54767;53.800;15.956;2023-04-10T09:53:08;10.90;;;7.70;;
67986;SDS011;54767;53.800;15.956;2023-04-10T09:55:39;12.90;;;8.30;;
67986;SDS011;54767;53.800;15.956;2023-04-10T10:00:39;13.70;;;7.80;;
67986;SDS011;54767;53.800;15.956;2023-04-10T10:03:27;14.10;;;8.40;;
67986;SDS011;54767;53.800;15.956;2023-04-10T10:05:56;18.50;;;9.70;;
67986;SDS011;54767;53.800;15.956;2023-04-10T10:08:24;15.60;;;9.40;;
67986;SDS011;54767;53.800;15.956;2023-04-10T10:10:53;16.70;;;9.10;;
67986;SDS011;54767;53.800;15.956;2023-04-10T10:21:52;16.30;;;9.10;;
67986;SDS011;54767;53.800;15.956;2023-04-10T10:24:22;13.60;;;7.90;;
67986;SDS011;54767;53.800;15.956;2023-04-10T10:26:53;11.40;;;7.40;;
67986;SDS011;54767;53.800;15.956;2023-04-10T10:29:25;11.40;;;7.10;;
67986;SDS011;54767;53.800;15.956;2023-04-10T10:31:59;10.80;;;7.10;;
67986;SDS011;54767;53.800;15.956;2023-04-10T10:34:29;10.40;;;7.40;;
67986;SDS011;54767;53.800;15.956;2023-04-10T10:36:58;13.00;;;7.30;;
67986;SDS011;54767;53.800;15.956;2023-04-10T10:39:38;11.10;;;7.20;;
67986;SDS011;54767;53.800;15.956;2023-04-10T10:42:17;10.70;;;7.40;;
67986;SDS011;54767;53.800;15.956;2023-04-10T10:47:48;10.70;;;7.10;;
67986;SDS011;54767;53.800;15.956;2023-04-10T10:50:20;12.50;;;7.70;;
67986;SDS011;54767;53.800;15.956;2023-04-10T10:52:52;11.20;;;7.40;;
67986;SDS011;54767;53.800;15.956;2023-04-10T10:58:17;15.40;;;9.20;;
67986;SDS011;54767;53.800;15.956;2023-04-10T11:01:15;11.30;;;7.50;;
67986;SDS011;54767;53.800;15.956;2023-04-10T11:03:44;12.40;;;7.80;;
67986;SDS011;54767;53.800;15.956;2023-04-10T11:06:15;14.90;;;8.10;;
67986;SDS011;54767;53.800;15.956;2023-04-10T11:08:50;13.40;;;8.50;;
67986;SDS011;54767;53.800;15.956;2023-04-10T11:11:26;13.90;;;8.10;;
67986;SDS011;54767;53.800;15.956;2023-04-10T11:16:39;9.90;;;7.00;;
67986;SDS011;54767;53.800;15.956;2023-04-10T11:19:13;17.30;;;9.90;;
67986;SDS011;54767;53.800;15.956;2023-04-10T11:24:26;16.00;;;9.70;;
67986;SDS011;54767;53.800;15.956;2023-04-10T11:26:55;21.30;;;13.80;;
67986;SDS011;54767;53.800;15.956;2023-04-10T11:31:56;8.70;;;6.50;;
67986;SDS011;54767;53.800;15.956;2023-04-10T11:34:26;9.80;;;6.40;;
67986;SDS011;54767;53.800;15.956;2023-04-10T11:36:55;10.70;;;7.20;;
67986;SDS011;54767;53.800;15.956;2023-04-10T11:39:24;9.50;;;6.70;;
67986;SDS011;54767;53.800;15.956;2023-04-10T11:41:53;9.10;;;7.10;;
67986;SDS011;54767;53.800;15.956;2023-04-10T11:46:58;10.50;;;7.60;;
67986;SDS011;54767;53.800;15.956;2023-04-10T11:49:29;10.70;;;7.20;;
67986;SDS011;54767;53.800;15.956;2023-04-10T11:52:01;12.60;;;8.10;;
67986;SDS011;54767;53.800;15.956;2023-04-10T11:54:30;12.70;;;8.30;;
67986;SDS011;54767;53.800;15.956;2023-04-10T11:57:03;11.90;;;8.50;;
67986;SDS011;54767;53.800;15.956;2023-04-10T11:59:48;10.30;;;7.00;;
67986;SDS011;54767;53.800;15.956;2023-04-10T12:02:18;12.20;;;8.00;;
67986;SDS011;54767;53.800;15.956;2023-04-10T12:04:46;12.40;;;8.40;;
67986;SDS011;54767;53.800;15.956;2023-04-10T12:07:25;14.60;;;9.00;;
67986;SDS011;54767;53.800;15.956;2023-04-10T12:09:58;14.00;;;8.70;;
67986;SDS011;54767;53.800;15.956;2023-04-10T12:12:33;9.90;;;7.40;;
67986;SDS011;54767;53.800;15.956;2023-04-10T12:17:54;12.30;;;7.50;;
67986;SDS011;54767;53.800;15.956;2023-04-10T12:20:23;11.40;;;7.90;;
67986;SDS011;54767;53.800;15.956;2023-04-10T12:22:58;9.90;;;7.40;;
67986;SDS011;54767;53.800;15.956;2023-04-10T12:26:16;9.00;;;7.20;;
67986;SDS011;54767;53.800;15.956;2023-04-10T12:28:55;13.20;;;8.10;;
67986;SDS011;54767;53.800;15.956;2023-04-10T12:31:29;10.80;;;7.70;;
67986;SDS011;54767;53.800;15.956;2023-04-10T12:33:59;10.60;;;7.40;;
67986;SDS011;54767;53.800;15.956;2023-04-10T12:36:29;10.10;;;7.30;;
67986;SDS011;54767;53.800;15.956;2023-04-10T12:39:02;9.80;;;7.30;;
67986;SDS011;54767;53.800;15.956;2023-04-10T12:41:32;10.40;;;7.90;;
67986;SDS011;54767;53.800;15.956;2023-04-10T12:44:05;9.60;;;7.30;;
67986;SDS011;54767;53.800;15.956;2023-04-10T12:46:35;9.60;;;7.20;;
67986;SDS011;54767;53.800;15.956;2023-04-10T12:49:10;10.60;;;7.70;;
67986;SDS011;54767;53.800;15.956;2023-04-10T12:51:43;10.90;;;7.50;;
67986;SDS011;54767;53.800;15.956;2023-04-10T12:54:29;11.60;;;7.50;;
67986;SDS011;54767;53.800;15.956;2023-04-10T12:57:00;11.30;;;6.70;;
67986;SDS011;54767;53.800;15.956;2023-04-10T12:59:31;10.90;;;7.30;;
67986;SDS011;54767;53.800;15.956;2023-04-10T13:04:29;11.30;;;7.90;;
67986;SDS011;54767;53.800;15.956;2023-04-10T13:06:59;10.60;;;7.70;;
67986;SDS011;54767;53.800;15.956;2023-04-10T13:09:28;10.30;;;7.50;;
67986;SDS011;54767;53.800;15.956;2023-04-10T13:11:56;8.30;;;6.90;;
67986;SDS011;54767;53.800;15.956;2023-04-10T13:14:25;9.50;;;6.90;;
67986;SDS011;54767;53.800;15.956;2023-04-10T13:16:53;8.40;;;6.80;;
67986;SDS011;54767;53.800;15.956;2023-04-10T13:19:22;9.50;;;6.80;;
67986;SDS011;54767;53.800;15.956;2023-04-10T13:21:50;9.40;;;6.90;;
67986;SDS011;54767;53.800;15.956;2023-04-10T13:24:18;9.50;;;6.70;;
67986;SDS011;54767;53.800;15.956;2023-04-10T13:26:47;9.60;;;6.80;;
67986;SDS011;54767;53.800;15.956;2023-04-10T13:29:15;9.30;;;6.90;;
67986;SDS011;54767;53.800;15.956;2023-04-10T13:31:43;9.00;;;6.50;;
67986;SDS011;54767;53.800;15.956;2023-04-10T13:34:12;8.20;;;7.20;;
67986;SDS011;54767;53.800;15.956;2023-04-10T13:36:40;7.80;;;6.40;;
67986;SDS011;54767;53.800;15.956;2023-04-10T13:39:09;8.50;;;6.70;;
67986;SDS011;54767;53.800;15.956;2023-04-10T13:41:37;8.80;;;6.70;;
67986;SDS011;54767;53.800;15.956;2023-04-10T13:44:06;9.40;;;6.40;;
67986;SDS011;54767;53.800;15.956;2023-04-10T13:46:34;8.00;;;6.40;;
67986;SDS011;54767;53.800;15.956;2023-04-10T13:49:02;8.90;;;6.60;;
67986;SDS011;54767;53.800;15.956;2023-04-10T13:51:31;9.30;;;6.90;;
67986;SDS011;54767;53.800;15.956;2023-04-10T13:53:59;8.70;;;6.30;;
67986;SDS011;54767;53.800;15.956;2023-04-10T13:56:29;7.50;;;6.00;;
67986;SDS011;54767;53.800;15.956;2023-04-10T13:58:58;7.30;;;6.10;;
67986;SDS011;54767;53.800;15.956;2023-04-10T14:01:26;7.70;;;6.10;;
67986;SDS011;54767;53.800;15.956;2023-04-10T14:03:55;8.30;;;6.10;;
67986;SDS011;54767;53.800;15.956;2023-04-10T14:06:23;8.80;;;6.30;;
67986;SDS011;54767;53.800;15.956;2023-04-10T14:08:52;8.00;;;6.90;;
67986;SDS011;54767;53.800;15.956;2023-04-10T14:11:21;8.50;;;6.20;;
67986;SDS011;54767;53.800;15.956;2023-04-10T14:13:50;8.40;;;6.50;;
67986;SDS011;54767;53.800;15.956;2023-04-10T14:16:18;7.90;;;6.30;;
67986;SDS011;54767;53.800;15.956;2023-04-10T14:18:47;9.70;;;6.00;;
67986;SDS011;54767;53.800;15.956;2023-04-10T14:21:16;8.50;;;6.00;;
67986;SDS011;54767;53.800;15.956;2023-04-10T14:23:47;7.30;;;5.90;;
67986;SDS011;54767;53.800;15.956;2023-04-10T14:26:15;7.60;;;6.50;;
67986;SDS011;54767;53.800;15.956;2023-04-10T14:28:44;7.80;;;6.30;;
67986;SDS011;54767;53.800;15.956;2023-04-10T14:31:12;8.90;;;6.60;;
67986;SDS011;54767;53.800;15.956;2023-04-10T14:33:40;9.40;;;6.40;;
67986;SDS011;54767;53.800;15.956;2023-04-10T14:36:09;6.80;;;6.00;;
67986;SDS011;54767;53.800;15.956;2023-04-10T14:38:37;8.90;;;7.00;;
67986;SDS011;54767;53.800;15.956;2023-04-10T14:41:06;7.90;;;6.60;;
67986;SDS011;54767;53.800;15.956;2023-04-10T14:43:35;7.80;;;5.90;;
67986;SDS011;54767;53.800;15.956;2023-04-10T14:46:04;8.20;;;5.70;;
67986;SDS011;54767;53.800;15.956;2023-04-10T14:48:33;7.70;;;6.20;;
67986;SDS011;54767;53.800;15.956;2023-04-10T14:51:01;7.00;;;5.50;;
67986;SDS011;54767;53.800;15.956;2023-04-10T14:55:59;7.30;;;5.70;;
67986;SDS011;54767;53.800;15.956;2023-04-10T14:58:27;8.90;;;5.90;;
67986;SDS011;54767;53.800;15.956;2023-04-10T15:00:56;8.20;;;6.60;;
67986;SDS011;54767;53.800;15.956;2023-04-10T15:03:24;10.60;;;7.50;;
67986;SDS011;54767;53.800;15.956;2023-04-10T15:05:59;9.40;;;6.50;;
67986;SDS011;54767;53.800;15.956;2023-04-10T15:08:28;8.40;;;6.30;;
67986;SDS011;54767;53.800;15.956;2023-04-10T15:10:57;10.80;;;6.60;;
67986;SDS011;54767;53.800;15.956;2023-04-10T15:13:25;7.70;;;5.80;;
67986;SDS011;54767;53.800;15.956;2023-04-10T15:15:53;11.20;;;6.80;;
67986;SDS011;54767;53.800;15.956;2023-04-10T15:18:22;7.90;;;6.00;;
67986;SDS011;54767;53.800;15.956;2023-04-10T15:20:52;7.10;;;5.50;;
67986;SDS011;54767;53.800;15.956;2023-04-10T15:23:22;7.20;;;5.40;;
67986;SDS011;54767;53.800;15.956;2023-04-10T15:25:51;10.00;;;7.10;;
67986;SDS011;54767;53.800;15.956;2023-04-10T15:28:20;9.30;;;6.30;;
67986;SDS011;54767;53.800;15.956;2023-04-10T15:30:48;7.50;;;6.70;;
67986;SDS011;54767;53.800;15.956;2023-04-10T15:33:17;10.80;;;7.40;;
67986;SDS011;54767;53.800;15.956;2023-04-10T15:35:49;10.70;;;7.90;;
67986;SDS011;54767;53.800;15.956;2023-04-10T15:38:17;8.10;;;6.60;;
67986;SDS011;54767;53.800;15.956;2023-04-10T15:40:46;16.70;;;11.40;;